createdAt,value
2019-03-27T00:00:16.734Z,77.11
2019-03-27T00:01:16.724Z,77.11
2019-03-27T00:02:16.716Z,76.90
2019-03-27T00:03:16.710Z,77.01
2019-03-27T00:04:16.702Z,77.11
2019-03-27T00:05:16.684Z,77.83
2019-03-27T00:06:16.671Z,76.49
2019-03-27T00:07:16.665Z,76.80
2019-03-27T00:08:16.651Z,76.49
2019-03-27T00:09:16.651Z,77.01
2019-03-27T00:10:16.631Z,77.31
2019-03-27T00:11:16.632Z,76.87
2019-03-27T00:12:16.607Z,77.22
2019-03-27T00:13:16.598Z,76.35
2019-03-27T00:14:16.599Z,77.01
2019-03-27T00:15:16.580Z,77.11
2019-03-27T00:16:16.568Z,77.38
2019-03-27T00:17:16.553Z,76.66
2019-03-27T00:18:27.252Z,77.52
2019-03-27T00:19:16.545Z,76.66
2019-03-27T00:20:16.536Z,77.11
2019-03-27T00:21:16.511Z,77.31
2019-03-27T00:22:16.500Z,77.08
2019-03-27T00:23:16.493Z,76.90
2019-03-27T00:24:16.489Z,78.31
2019-03-27T00:25:16.472Z,77.48
2019-03-27T00:26:16.464Z,77.18
2019-03-27T00:27:16.449Z,77.08
2019-03-27T00:28:16.443Z,77.48
2019-03-27T00:29:16.474Z,78.21
2019-03-27T00:30:16.433Z,78.31
2019-03-27T00:31:16.422Z,78.11
2019-03-27T00:32:16.406Z,78.34
2019-03-27T00:33:16.396Z,77.80
2019-03-27T00:34:16.470Z,77.38
2019-03-27T00:35:16.386Z,77.42
2019-03-27T00:36:16.371Z,77.62
2019-03-27T00:37:16.353Z,77.80
2019-03-27T00:38:16.348Z,78.21
2019-03-27T00:39:16.338Z,78.11
2019-03-27T00:40:16.336Z,78.04
2019-03-27T00:41:16.313Z,78.00
2019-03-27T00:42:16.306Z,78.14
2019-03-27T00:43:16.300Z,77.22
2019-03-27T00:44:16.277Z,77.83
2019-03-27T00:45:26.375Z,77.90
2019-03-27T00:46:17.256Z,78.04
2019-03-27T00:47:16.253Z,78.34
2019-03-27T00:48:16.233Z,78.04
2019-03-27T00:49:16.222Z,77.94
2019-03-27T00:50:16.231Z,77.94
2019-03-27T00:51:16.214Z,78.04
2019-03-27T00:52:16.199Z,78.66
2019-03-27T00:53:16.178Z,78.34
2019-03-27T00:54:16.174Z,78.55
2019-03-27T00:55:16.172Z,78.76
2019-03-27T00:56:16.152Z,78.66
2019-03-27T00:57:16.142Z,78.86
2019-03-27T00:58:16.128Z,78.66
2019-03-27T00:59:19.168Z,79.27
2019-03-27T01:00:16.120Z,78.45
2019-03-27T01:01:16.099Z,78.24
2019-03-27T01:02:16.082Z,79.48
2019-03-27T01:03:16.073Z,79.48
2019-03-27T01:04:16.071Z,79.48
2019-03-27T01:05:16.060Z,79.41
2019-03-27T01:06:16.089Z,79.48
2019-03-27T01:07:16.043Z,78.97
2019-03-27T01:08:16.021Z,79.38
2019-03-27T01:09:16.015Z,79.48
2019-03-27T01:10:16.015Z,78.66
2019-03-27T01:11:15.986Z,79.07
2019-03-27T01:12:15.977Z,78.66
2019-03-27T01:13:15.972Z,79.38
2019-03-27T01:14:15.958Z,80.10
2019-03-27T01:15:15.961Z,79.27
2019-03-27T01:16:15.944Z,79.27
2019-03-27T01:17:15.927Z,80.04
2019-03-27T01:18:15.916Z,80.04
2019-03-27T01:19:15.905Z,79.52
2019-03-27T01:20:15.925Z,79.69
2019-03-27T01:21:15.890Z,79.79
2019-03-27T01:22:15.868Z,80.00
2019-03-27T01:23:15.862Z,79.58
2019-03-27T01:24:15.848Z,79.17
2019-03-27T01:25:15.856Z,79.58
2019-03-27T01:26:15.828Z,80.10
2019-03-27T01:27:15.815Z,80.10
2019-03-27T01:28:15.833Z,80.20
2019-03-27T01:29:15.797Z,79.38
2019-03-27T01:30:15.839Z,79.69
2019-03-27T01:31:15.775Z,79.58
2019-03-27T01:32:15.771Z,79.27
2019-03-27T01:33:15.769Z,78.66
2019-03-27T01:34:15.742Z,79.27
2019-03-27T01:35:15.732Z,78.86
2019-03-27T01:36:15.737Z,78.76
2019-03-27T01:37:15.719Z,79.27
2019-03-27T01:38:15.705Z,79.27
2019-03-27T01:39:15.743Z,79.17
2019-03-27T01:40:15.680Z,79.27
2019-03-27T01:41:24.320Z,79.58
2019-03-27T01:42:24.854Z,79.38
2019-03-27T01:43:15.644Z,79.27
2019-03-27T01:44:15.633Z,79.38
2019-03-27T01:45:15.618Z,79.58
2019-03-27T01:46:15.622Z,79.38
2019-03-27T01:47:15.619Z,79.69
2019-03-27T01:48:15.588Z,79.48
2019-03-27T01:49:15.581Z,79.48
2019-03-27T01:50:15.584Z,79.07
2019-03-27T01:51:15.565Z,80.00
2019-03-27T01:52:24.829Z,80.10
2019-03-27T01:53:15.535Z,80.30
2019-03-27T01:54:15.525Z,79.79
2019-03-27T01:55:15.513Z,80.00
2019-03-27T01:56:15.509Z,79.07
2019-03-27T01:57:15.489Z,79.48
2019-03-27T01:58:15.478Z,79.90
2019-03-27T01:59:15.467Z,80.20
2019-03-27T02:00:15.459Z,80.00
2019-03-27T02:01:15.456Z,79.38
2019-03-27T02:02:15.436Z,79.90
2019-03-27T02:03:15.425Z,79.62
2019-03-27T02:04:15.417Z,80.51
2019-03-27T02:05:15.406Z,80.34
2019-03-27T02:06:15.406Z,80.10
2019-03-27T02:07:15.383Z,79.27
2019-03-27T02:08:15.371Z,80.00
2019-03-27T02:09:15.371Z,79.90
2019-03-27T02:10:15.351Z,80.41
2019-03-27T02:11:15.353Z,79.83
2019-03-27T02:12:15.329Z,80.62
2019-03-27T02:13:15.317Z,80.30
2019-03-27T02:14:15.309Z,80.30
2019-03-27T02:15:15.298Z,80.72
2019-03-27T02:16:15.299Z,80.86
2019-03-27T02:17:15.280Z,80.72
2019-03-27T02:18:15.265Z,80.82
2019-03-27T02:19:15.268Z,80.86
2019-03-27T02:20:15.245Z,81.23
2019-03-27T02:21:15.241Z,81.03
2019-03-27T02:22:15.228Z,81.17
2019-03-27T02:23:15.214Z,81.48
2019-03-27T02:24:15.202Z,81.13
2019-03-27T02:25:15.198Z,80.82
2019-03-27T02:26:15.189Z,81.99
2019-03-27T02:27:15.169Z,81.89
2019-03-27T02:28:15.157Z,81.68
2019-03-27T02:29:15.146Z,81.54
2019-03-27T02:30:15.138Z,81.89
2019-03-27T02:31:15.137Z,82.10
2019-03-27T02:32:15.116Z,82.20
2019-03-27T02:33:15.105Z,81.99
2019-03-27T02:34:15.107Z,81.85
2019-03-27T02:35:15.088Z,80.24
2019-03-27T02:36:15.085Z,80.10
2019-03-27T02:37:15.132Z,80.93
2019-03-27T02:38:15.050Z,81.44
2019-03-27T02:39:15.043Z,81.54
2019-03-27T02:40:15.029Z,82.26
2019-03-27T02:41:15.062Z,82.06
2019-03-27T02:42:15.014Z,81.96
2019-03-27T02:43:15.003Z,81.75
2019-03-27T02:44:14.991Z,81.85
2019-03-27T02:45:14.977Z,81.75
2019-03-27T02:46:24.335Z,82.16
2019-03-27T02:47:15.964Z,82.26
2019-03-27T02:48:14.944Z,82.47
2019-03-27T02:49:14.935Z,82.06
2019-03-27T02:50:14.937Z,83.19
2019-03-27T02:51:14.915Z,82.47
2019-03-27T02:52:14.919Z,82.98
2019-03-27T02:53:14.946Z,82.06
2019-03-27T02:54:14.885Z,81.85
2019-03-27T02:55:14.869Z,81.85
2019-03-27T02:56:14.862Z,82.06
2019-03-27T02:57:14.873Z,81.75
2019-03-27T02:58:14.839Z,81.75
2019-03-27T02:59:14.828Z,80.93
2019-03-27T03:00:14.816Z,81.96
2019-03-27T03:01:14.805Z,82.06
2019-03-27T03:02:14.802Z,81.75
2019-03-27T03:03:14.785Z,81.85
2019-03-27T03:04:14.775Z,82.16
2019-03-27T03:05:14.771Z,81.85
2019-03-27T03:06:14.755Z,81.96
2019-03-27T03:07:14.862Z,81.65
2019-03-27T03:08:14.732Z,81.96
2019-03-27T03:09:14.721Z,80.72
2019-03-27T03:10:14.718Z,81.75
2019-03-27T03:11:14.701Z,81.85
2019-03-27T03:12:14.698Z,81.96
2019-03-27T03:13:14.678Z,82.26
2019-03-27T03:14:14.667Z,82.37
2019-03-27T03:15:14.660Z,82.26
2019-03-27T03:16:14.664Z,82.47
2019-03-27T03:17:14.646Z,82.16
2019-03-27T03:18:14.625Z,81.65
2019-03-27T03:19:14.617Z,82.23
2019-03-27T03:20:14.605Z,82.12
2019-03-27T03:21:14.596Z,81.85
2019-03-27T03:22:14.592Z,82.12
2019-03-27T03:23:14.571Z,82.78
2019-03-27T03:24:14.562Z,82.47
2019-03-27T03:25:14.551Z,82.26
2019-03-27T03:26:14.539Z,81.92
2019-03-27T03:27:14.540Z,81.92
2019-03-27T03:28:14.525Z,82.37
2019-03-27T03:29:14.513Z,81.96
2019-03-27T03:30:14.626Z,82.06
2019-03-27T03:31:14.492Z,81.75
2019-03-27T03:32:14.495Z,81.85
2019-03-27T03:33:14.494Z,82.12
2019-03-27T03:34:14.460Z,81.81
2019-03-27T03:35:14.467Z,80.68
2019-03-27T03:36:14.439Z,81.61
2019-03-27T03:37:14.433Z,82.12
2019-03-27T03:38:14.419Z,81.71
2019-03-27T03:39:14.404Z,81.92
2019-03-27T03:40:14.391Z,81.92
2019-03-27T03:41:14.386Z,81.71
2019-03-27T03:42:14.381Z,82.23
2019-03-27T03:43:14.492Z,82.02
2019-03-27T03:44:14.348Z,81.81
2019-03-27T03:45:14.338Z,81.61
2019-03-27T03:46:14.337Z,81.92
2019-03-27T03:47:14.324Z,82.02
2019-03-27T03:48:14.315Z,82.12
2019-03-27T03:49:14.298Z,82.02
2019-03-27T03:50:14.296Z,83.05
2019-03-27T03:51:14.278Z,82.12
2019-03-27T03:52:14.271Z,81.92
2019-03-27T03:53:14.252Z,81.92
2019-03-27T03:54:14.240Z,82.02
2019-03-27T03:55:14.229Z,82.23
2019-03-27T03:56:14.216Z,82.33
2019-03-27T03:57:14.216Z,82.33
2019-03-27T03:58:14.195Z,81.77
2019-03-27T03:59:14.193Z,82.02
2019-03-27T04:00:14.175Z,82.81
2019-03-27T04:01:14.167Z,82.43
2019-03-27T04:02:14.163Z,81.98
2019-03-27T04:03:14.142Z,82.09
2019-03-27T04:04:14.131Z,81.88
2019-03-27T04:05:14.120Z,81.26
2019-03-27T04:06:14.114Z,81.98
2019-03-27T04:07:14.111Z,81.77
2019-03-27T04:08:14.094Z,81.16
2019-03-27T04:09:14.081Z,81.57
2019-03-27T04:10:14.066Z,82.19
2019-03-27T04:11:14.064Z,81.67
2019-03-27T04:12:14.059Z,81.37
2019-03-27T04:13:14.037Z,82.19
2019-03-27T04:14:14.025Z,81.88
2019-03-27T04:15:14.019Z,82.09
2019-03-27T04:16:14.007Z,82.91
2019-03-27T04:17:17.663Z,82.40
2019-03-27T04:18:13.980Z,81.67
2019-03-27T04:19:13.972Z,81.98
2019-03-27T04:20:13.960Z,82.60
2019-03-27T04:21:13.976Z,81.67
2019-03-27T04:22:13.978Z,82.19
2019-03-27T04:23:13.927Z,81.77
2019-03-27T04:24:13.920Z,82.40
2019-03-27T04:25:13.904Z,82.74
2019-03-27T04:26:13.894Z,82.74
2019-03-27T04:27:13.912Z,82.84
2019-03-27T04:28:13.880Z,83.26
2019-03-27T04:29:13.861Z,83.12
2019-03-27T04:30:13.919Z,83.01
2019-03-27T04:31:13.841Z,82.95
2019-03-27T04:32:13.837Z,82.64
2019-03-27T04:33:13.828Z,82.81
2019-03-27T04:34:13.809Z,83.01
2019-03-27T04:35:13.839Z,83.12
2019-03-27T04:36:13.787Z,82.81
2019-03-27T04:37:13.781Z,82.91
2019-03-27T04:38:13.774Z,82.81
2019-03-27T04:39:13.754Z,81.77
2019-03-27T04:40:13.745Z,82.91
2019-03-27T04:41:13.740Z,82.91
2019-03-27T04:42:13.722Z,82.91
2019-03-27T04:43:13.721Z,83.32
2019-03-27T04:44:13.798Z,82.81
2019-03-27T04:45:13.687Z,82.81
2019-03-27T04:46:13.677Z,82.50
2019-03-27T04:47:13.702Z,82.60
2019-03-27T04:48:13.668Z,82.60
2019-03-27T04:49:13.647Z,82.81
2019-03-27T04:50:13.638Z,83.63
2019-03-27T04:51:13.626Z,83.12
2019-03-27T04:52:13.613Z,82.70
2019-03-27T04:53:13.612Z,82.91
2019-03-27T04:54:13.606Z,82.60
2019-03-27T04:55:13.588Z,83.01
2019-03-27T04:56:13.572Z,82.50
2019-03-27T04:57:13.558Z,82.40
2019-03-27T04:58:13.562Z,82.50
2019-03-27T04:59:13.537Z,83.01
2019-03-27T05:00:13.531Z,82.60
2019-03-27T05:01:13.514Z,83.42
2019-03-27T05:02:13.503Z,83.22
2019-03-27T05:03:13.508Z,83.22
2019-03-27T05:04:13.482Z,82.91
2019-03-27T05:05:13.472Z,83.63
2019-03-27T05:06:13.461Z,82.91
2019-03-27T05:07:13.784Z,83.01
2019-03-27T05:08:13.449Z,83.84
2019-03-27T05:09:13.428Z,83.01
2019-03-27T05:10:13.416Z,83.53
2019-03-27T05:11:13.417Z,84.35
2019-03-27T05:12:13.395Z,84.87
2019-03-27T05:13:13.393Z,84.14
2019-03-27T05:14:13.390Z,83.12
2019-03-27T05:15:13.365Z,83.32
2019-03-27T05:16:13.352Z,83.49
2019-03-27T05:17:13.343Z,83.12
2019-03-27T05:18:13.340Z,83.12
2019-03-27T05:19:13.325Z,84.45
2019-03-27T05:20:13.312Z,84.45
2019-03-27T05:21:13.301Z,82.77
2019-03-27T05:22:13.287Z,82.77
2019-03-27T05:23:13.287Z,83.12
2019-03-27T05:24:13.266Z,82.25
2019-03-27T05:25:13.257Z,82.87
2019-03-27T05:26:13.245Z,82.97
2019-03-27T05:27:13.233Z,83.07
2019-03-27T05:28:13.254Z,83.49
2019-03-27T05:29:13.213Z,83.18
2019-03-27T05:30:13.201Z,82.77
2019-03-27T05:31:13.190Z,83.49
2019-03-27T05:32:13.181Z,82.77
2019-03-27T05:33:13.168Z,82.97
2019-03-27T05:34:13.173Z,82.77
2019-03-27T05:35:13.149Z,82.77
2019-03-27T05:36:13.135Z,83.80
2019-03-27T05:37:13.125Z,82.87
2019-03-27T05:38:13.114Z,83.49
2019-03-27T05:39:14.675Z,84.11
2019-03-27T05:40:13.096Z,84.31
2019-03-27T05:41:13.082Z,83.28
2019-03-27T05:42:13.079Z,82.46
2019-03-27T05:43:13.065Z,83.18
2019-03-27T05:44:13.057Z,84.42
2019-03-27T05:45:13.040Z,83.70
2019-03-27T05:46:13.032Z,83.39
2019-03-27T05:47:13.017Z,82.97
2019-03-27T05:48:13.009Z,83.49
2019-03-27T05:49:13.004Z,83.18
2019-03-27T05:50:12.988Z,84.62
2019-03-27T05:51:12.976Z,83.18
2019-03-27T05:52:12.973Z,84.00
2019-03-27T05:53:12.950Z,83.70
2019-03-27T05:54:12.955Z,83.49
2019-03-27T05:55:12.932Z,83.59
2019-03-27T05:56:12.923Z,83.59
2019-03-27T05:57:12.906Z,83.04
2019-03-27T05:58:12.896Z,82.77
2019-03-27T05:59:12.982Z,83.55
2019-03-27T06:00:12.876Z,84.17
2019-03-27T06:01:12.863Z,83.35
2019-03-27T06:02:12.852Z,83.35
2019-03-27T06:03:12.840Z,82.73
2019-03-27T06:04:12.833Z,84.00
2019-03-27T06:05:12.829Z,83.76
2019-03-27T06:06:12.808Z,83.97
2019-03-27T06:07:12.813Z,83.97
2019-03-27T06:08:12.790Z,83.59
2019-03-27T06:09:12.790Z,82.83
2019-03-27T06:10:16.139Z,83.04
2019-03-27T06:11:12.756Z,82.63
2019-03-27T06:12:12.777Z,83.04
2019-03-27T06:13:12.735Z,82.63
2019-03-27T06:14:12.722Z,82.83
2019-03-27T06:15:12.719Z,83.04
2019-03-27T06:16:12.699Z,82.93
2019-03-27T06:17:12.690Z,82.73
2019-03-27T06:18:13.573Z,83.14
2019-03-27T06:19:12.690Z,82.79
2019-03-27T06:20:12.668Z,82.73
2019-03-27T06:21:12.653Z,82.93
2019-03-27T06:22:15.113Z,83.04
2019-03-27T06:23:12.633Z,82.83
2019-03-27T06:24:12.674Z,82.73
2019-03-27T06:25:12.626Z,82.73
2019-03-27T06:26:12.593Z,83.25
2019-03-27T06:27:12.581Z,82.42
2019-03-27T06:28:12.570Z,81.87
2019-03-27T06:29:15.650Z,81.91
2019-03-27T06:30:12.557Z,82.28
2019-03-27T06:31:12.542Z,81.76
2019-03-27T06:32:12.527Z,81.76
2019-03-27T06:33:12.517Z,81.67
2019-03-27T06:34:12.508Z,81.87
2019-03-27T06:35:12.503Z,81.76
2019-03-27T06:36:12.484Z,81.67
2019-03-27T06:37:12.472Z,81.76
2019-03-27T06:38:12.462Z,81.56
2019-03-27T06:39:12.471Z,81.62
2019-03-27T06:40:12.453Z,81.46
2019-03-27T06:41:12.435Z,81.56
2019-03-27T06:42:12.426Z,81.21
2019-03-27T06:43:12.409Z,81.21
2019-03-27T06:44:12.398Z,81.52
2019-03-27T06:45:12.397Z,81.01
2019-03-27T06:46:12.376Z,81.83
2019-03-27T06:47:12.364Z,81.11
2019-03-27T06:48:25.445Z,80.70
2019-03-27T06:49:13.357Z,80.70
2019-03-27T06:50:12.345Z,81.21
2019-03-27T06:51:12.379Z,80.91
2019-03-27T06:52:12.312Z,80.60
2019-03-27T06:53:12.300Z,80.19
2019-03-27T06:54:12.293Z,79.47
2019-03-27T06:55:12.294Z,80.08
2019-03-27T06:56:12.270Z,80.39
2019-03-27T06:57:12.261Z,80.15
2019-03-27T06:58:12.250Z,80.15
2019-03-27T06:59:12.236Z,79.43
2019-03-27T07:00:12.240Z,80.25
2019-03-27T07:01:12.216Z,80.15
2019-03-27T07:02:12.204Z,80.56
2019-03-27T07:03:12.194Z,80.15
2019-03-27T07:04:12.184Z,79.74
2019-03-27T07:05:12.202Z,78.92
2019-03-27T07:06:12.193Z,78.71
2019-03-27T07:07:12.152Z,78.06
2019-03-27T07:08:12.144Z,78.16
2019-03-27T07:09:12.128Z,78.47
2019-03-27T07:10:12.127Z,78.67
2019-03-27T07:11:12.109Z,78.78
2019-03-27T07:12:21.092Z,78.57
2019-03-27T07:13:13.088Z,78.16
2019-03-27T07:14:12.075Z,77.55
2019-03-27T07:15:12.077Z,77.95
2019-03-27T07:16:12.055Z,77.95
2019-03-27T07:17:12.044Z,77.44
2019-03-27T07:18:12.036Z,77.51
2019-03-27T07:19:12.021Z,77.44
2019-03-27T07:20:12.025Z,76.93
2019-03-27T07:21:12.001Z,77.51
2019-03-27T07:22:12.016Z,76.82
2019-03-27T07:23:11.985Z,76.72
2019-03-27T07:24:11.976Z,76.72
2019-03-27T07:25:11.967Z,76.79
2019-03-27T07:26:11.948Z,76.58
2019-03-27T07:27:11.937Z,76.82
2019-03-27T07:28:11.934Z,76.79
2019-03-27T07:29:11.915Z,76.79
2019-03-27T07:30:11.932Z,76.72
2019-03-27T07:31:11.893Z,76.72
2019-03-27T07:32:11.886Z,76.07
2019-03-27T07:33:11.873Z,76.07
2019-03-27T07:34:11.863Z,75.97
2019-03-27T07:35:11.853Z,76.68
2019-03-27T07:36:11.850Z,76.38
2019-03-27T07:37:11.844Z,76.48
2019-03-27T07:38:11.819Z,76.38
2019-03-27T07:39:11.810Z,75.56
2019-03-27T07:40:11.796Z,75.97
2019-03-27T07:41:11.795Z,75.25
2019-03-27T07:42:11.782Z,74.74
2019-03-27T07:43:11.775Z,74.91
2019-03-27T07:44:11.758Z,75.25
2019-03-27T07:45:11.764Z,74.80
2019-03-27T07:46:11.780Z,74.40
2019-03-27T07:47:11.722Z,74.29
2019-03-27T07:48:11.714Z,74.08
2019-03-27T07:49:11.699Z,73.98
2019-03-27T07:50:11.690Z,74.40
2019-03-27T07:51:11.690Z,74.08
2019-03-27T07:52:11.666Z,74.08
2019-03-27T07:53:11.664Z,73.98
2019-03-27T07:54:11.646Z,74.08
2019-03-27T07:55:19.278Z,73.57
2019-03-27T07:56:12.637Z,74.08
2019-03-27T07:57:11.615Z,74.19
2019-03-27T07:58:11.602Z,74.49
2019-03-27T07:59:11.609Z,74.70
2019-03-27T08:00:11.581Z,74.84
2019-03-27T08:01:11.583Z,75.04
2019-03-27T08:02:11.564Z,74.29
2019-03-27T08:03:11.549Z,74.12
2019-03-27T08:04:14.284Z,74.08
2019-03-27T08:05:11.527Z,74.43
2019-03-27T08:06:11.532Z,74.43
2019-03-27T08:07:11.509Z,74.53
2019-03-27T08:08:11.499Z,74.84
2019-03-27T08:09:11.485Z,74.84
2019-03-27T08:10:11.474Z,74.84
2019-03-27T08:11:11.474Z,75.35
2019-03-27T08:12:11.453Z,74.84
2019-03-27T08:13:11.452Z,75.45
2019-03-27T08:14:11.434Z,75.15
2019-03-27T08:15:11.419Z,75.25
2019-03-27T08:16:11.462Z,74.94
2019-03-27T08:17:11.400Z,74.53
2019-03-27T08:18:11.393Z,74.43
2019-03-27T08:19:11.388Z,74.74
2019-03-27T08:20:11.900Z,74.94
2019-03-27T08:21:11.391Z,75.04
2019-03-27T08:22:11.360Z,74.94
2019-03-27T08:23:11.340Z,75.15
2019-03-27T08:24:11.325Z,75.04
2019-03-27T08:25:11.319Z,75.80
2019-03-27T08:26:11.305Z,75.90
2019-03-27T08:27:14.467Z,75.25
2019-03-27T08:28:11.286Z,76.00
2019-03-27T08:29:11.274Z,76.21
2019-03-27T08:30:11.269Z,75.90
2019-03-27T08:31:11.249Z,76.58
2019-03-27T08:32:11.252Z,76.62
2019-03-27T08:33:11.229Z,76.51
2019-03-27T08:34:11.225Z,76.31
2019-03-27T08:35:11.211Z,76.31
2019-03-27T08:36:11.198Z,76.72
2019-03-27T08:37:11.192Z,76.62
2019-03-27T08:38:11.174Z,76.42
2019-03-27T08:39:11.164Z,76.62
2019-03-27T08:40:11.159Z,76.21
2019-03-27T08:41:11.145Z,76.51
2019-03-27T08:42:11.145Z,76.21
2019-03-27T08:43:21.063Z,76.10
2019-03-27T08:44:12.112Z,76.62
2019-03-27T08:45:11.098Z,76.72
2019-03-27T08:46:11.093Z,76.82
2019-03-27T08:47:11.116Z,76.31
2019-03-27T08:48:11.067Z,76.21
2019-03-27T08:49:21.387Z,76.62
2019-03-27T08:50:12.045Z,76.68
2019-03-27T08:51:11.033Z,76.68
2019-03-27T08:52:11.035Z,76.58
2019-03-27T08:53:11.025Z,76.07
2019-03-27T08:54:11.005Z,76.00
2019-03-27T08:55:13.494Z,75.56
2019-03-27T08:56:10.980Z,76.17
2019-03-27T08:57:10.979Z,76.58
2019-03-27T08:58:10.959Z,76.68
2019-03-27T08:59:10.957Z,76.48
2019-03-27T09:00:10.943Z,76.58
2019-03-27T09:01:10.926Z,76.58
2019-03-27T09:02:10.943Z,75.73
2019-03-27T09:03:10.907Z,75.62
2019-03-27T09:04:10.984Z,75.66
2019-03-27T09:05:10.887Z,75.66
2019-03-27T09:06:10.874Z,75.62
2019-03-27T09:07:10.870Z,76.07
2019-03-27T09:08:10.913Z,76.17
2019-03-27T09:09:10.838Z,75.76
2019-03-27T09:10:10.830Z,76.17
2019-03-27T09:11:10.824Z,75.87
2019-03-27T09:12:10.820Z,76.28
2019-03-27T09:13:10.802Z,76.17
2019-03-27T09:14:10.785Z,75.93
2019-03-27T09:15:10.777Z,75.73
2019-03-27T09:16:10.766Z,74.87
2019-03-27T09:17:10.779Z,74.77
2019-03-27T09:18:10.744Z,74.32
2019-03-27T09:19:10.732Z,74.73
2019-03-27T09:20:10.722Z,73.47
2019-03-27T09:21:10.713Z,73.03
2019-03-27T09:22:10.704Z,72.92
2019-03-27T09:23:10.697Z,71.97
2019-03-27T09:24:10.678Z,71.53
2019-03-27T09:25:10.672Z,71.25
2019-03-27T09:26:10.679Z,71.45
2019-03-27T09:27:10.648Z,70.64
2019-03-27T09:28:10.645Z,71.36
2019-03-27T09:29:10.623Z,71.04
2019-03-27T09:30:10.613Z,70.94
2019-03-27T09:31:10.616Z,70.64
2019-03-27T09:32:10.605Z,70.94
2019-03-27T09:33:10.640Z,70.64
2019-03-27T09:34:10.570Z,71.18
2019-03-27T09:35:10.563Z,70.98
2019-03-27T09:36:10.704Z,71.39
2019-03-27T09:37:10.537Z,71.18
2019-03-27T09:38:10.541Z,71.80
2019-03-27T09:39:10.519Z,71.90
2019-03-27T09:40:10.509Z,71.80
2019-03-27T09:41:10.496Z,71.39
2019-03-27T09:42:10.485Z,71.28
2019-03-27T09:43:10.485Z,71.59
2019-03-27T09:44:10.463Z,71.18
2019-03-27T09:45:10.453Z,71.39
2019-03-27T09:46:10.443Z,71.39
2019-03-27T09:47:10.430Z,71.15
2019-03-27T09:48:10.431Z,71.04
2019-03-27T09:49:10.410Z,71.04
2019-03-27T09:50:10.401Z,70.77
2019-03-27T09:51:10.389Z,70.74
2019-03-27T09:52:10.378Z,71.08
2019-03-27T09:53:10.378Z,71.28
2019-03-27T09:54:10.361Z,71.28
2019-03-27T09:55:10.346Z,71.28
2019-03-27T09:56:19.124Z,70.77
2019-03-27T09:57:11.328Z,70.87
2019-03-27T09:58:10.322Z,70.77
2019-03-27T09:59:10.305Z,70.47
2019-03-27T10:00:10.296Z,71.28
2019-03-27T10:01:10.283Z,71.59
2019-03-27T10:02:10.274Z,70.98
2019-03-27T10:03:10.284Z,71.08
2019-03-27T10:04:10.254Z,71.39
2019-03-27T10:05:10.246Z,71.18
2019-03-27T10:06:10.230Z,71.18
2019-03-27T10:07:10.234Z,71.18
2019-03-27T10:08:10.231Z,71.39
2019-03-27T10:09:10.196Z,71.49
2019-03-27T10:10:10.191Z,71.28
2019-03-27T10:11:10.178Z,71.08
2019-03-27T10:12:10.166Z,71.59
2019-03-27T10:13:10.164Z,71.49
2019-03-27T10:14:10.148Z,71.69
2019-03-27T10:15:10.132Z,71.18
2019-03-27T10:16:10.122Z,71.18
2019-03-27T10:17:10.113Z,70.94
2019-03-27T10:18:10.110Z,70.98
2019-03-27T10:19:10.092Z,70.74
2019-03-27T10:20:13.387Z,71.15
2019-03-27T10:21:10.070Z,70.67
2019-03-27T10:22:10.060Z,70.94
2019-03-27T10:23:10.070Z,70.64
2019-03-27T10:24:10.041Z,71.18
2019-03-27T10:25:10.107Z,70.84
2019-03-27T10:26:10.016Z,70.87
2019-03-27T10:27:10.006Z,71.08
2019-03-27T10:28:10.006Z,71.15
2019-03-27T10:29:09.984Z,70.53
2019-03-27T10:30:09.976Z,71.04
2019-03-27T10:31:09.987Z,70.94
2019-03-27T10:32:09.952Z,70.64
2019-03-27T10:33:09.949Z,70.53
2019-03-27T10:34:09.930Z,70.74
2019-03-27T10:35:09.920Z,70.43
2019-03-27T10:36:09.908Z,70.33
2019-03-27T10:37:09.901Z,70.03
2019-03-27T10:38:09.897Z,70.03
2019-03-27T10:39:09.877Z,70.33
2019-03-27T10:40:09.864Z,70.64
2019-03-27T10:41:09.854Z,70.74
2019-03-27T10:42:09.846Z,70.74
2019-03-27T10:43:09.853Z,70.43
2019-03-27T10:44:09.824Z,69.99
2019-03-27T10:45:09.810Z,69.48
2019-03-27T10:46:09.800Z,70.20
2019-03-27T10:47:09.789Z,70.03
2019-03-27T10:48:09.795Z,70.20
2019-03-27T10:49:09.769Z,69.48
2019-03-27T10:50:17.424Z,69.61
2019-03-27T10:51:10.745Z,69.58
2019-03-27T10:52:09.737Z,69.89
2019-03-27T10:53:09.748Z,69.79
2019-03-27T10:54:09.714Z,69.79
2019-03-27T10:55:09.709Z,69.17
2019-03-27T10:56:09.691Z,69.07
2019-03-27T10:57:09.681Z,69.07
2019-03-27T10:58:09.673Z,69.48
2019-03-27T10:59:09.677Z,69.48
2019-03-27T11:00:09.655Z,69.27
2019-03-27T11:01:09.650Z,69.38
2019-03-27T11:02:09.629Z,69.27
2019-03-27T11:03:09.621Z,69.17
2019-03-27T11:04:09.621Z,69.17
2019-03-27T11:05:09.611Z,69.89
2019-03-27T11:06:09.591Z,69.45
2019-03-27T11:07:09.579Z,69.68
2019-03-27T11:08:11.377Z,69.27
2019-03-27T11:09:09.583Z,70.09
2019-03-27T11:10:09.549Z,69.38
2019-03-27T11:11:09.539Z,69.27
2019-03-27T11:12:09.522Z,69.58
2019-03-27T11:13:09.513Z,69.48
2019-03-27T11:14:09.512Z,69.48
2019-03-27T11:15:09.496Z,69.58
2019-03-27T11:16:09.497Z,69.38
2019-03-27T11:17:09.472Z,69.27
2019-03-27T11:18:09.460Z,69.31
2019-03-27T11:19:09.460Z,70.40
2019-03-27T11:20:09.439Z,69.48
2019-03-27T11:21:09.428Z,69.68
2019-03-27T11:22:09.418Z,69.79
2019-03-27T11:23:09.409Z,69.48
2019-03-27T11:24:09.405Z,69.38
2019-03-27T11:25:09.384Z,69.48
2019-03-27T11:26:09.379Z,69.27
2019-03-27T11:27:09.363Z,70.09
2019-03-27T11:28:09.367Z,69.31
2019-03-27T11:29:09.513Z,69.27
2019-03-27T11:30:09.332Z,69.38
2019-03-27T11:31:09.324Z,69.68
2019-03-27T11:32:09.321Z,69.24
2019-03-27T11:33:09.366Z,68.73
2019-03-27T11:34:09.291Z,69.24
2019-03-27T11:35:09.294Z,68.63
2019-03-27T11:36:09.271Z,69.04
2019-03-27T11:37:09.260Z,68.80
2019-03-27T11:38:09.245Z,68.84
2019-03-27T11:39:09.235Z,68.52
2019-03-27T11:40:09.248Z,68.42
2019-03-27T11:41:12.138Z,68.52
2019-03-27T11:42:09.205Z,68.93
2019-03-27T11:43:09.212Z,69.24
2019-03-27T11:44:12.501Z,68.84
2019-03-27T11:45:09.180Z,68.84
2019-03-27T11:46:09.168Z,69.24
2019-03-27T11:47:09.156Z,68.32
2019-03-27T11:48:09.142Z,68.32
2019-03-27T11:49:09.129Z,68.32
2019-03-27T11:50:09.139Z,68.42
2019-03-27T11:51:09.107Z,68.29
2019-03-27T11:52:09.097Z,67.57
2019-03-27T11:53:09.086Z,67.68
2019-03-27T11:54:09.077Z,67.57
2019-03-27T11:55:09.076Z,67.16
2019-03-27T11:56:09.056Z,67.34
2019-03-27T11:57:09.045Z,67.27
2019-03-27T11:58:09.033Z,67.13
2019-03-27T11:59:09.018Z,67.34
2019-03-27T12:00:09.017Z,67.13
2019-03-27T12:01:08.996Z,66.72
2019-03-27T12:02:08.990Z,66.72
2019-03-27T12:03:08.978Z,66.72
2019-03-27T12:04:08.965Z,66.86
2019-03-27T12:05:08.963Z,66.96
2019-03-27T12:06:08.941Z,66.62
2019-03-27T12:07:08.931Z,66.93
2019-03-27T12:08:08.921Z,66.75
2019-03-27T12:09:08.915Z,66.75
2019-03-27T12:10:08.912Z,67.13
2019-03-27T12:11:08.887Z,66.93
2019-03-27T12:12:08.901Z,66.93
2019-03-27T12:13:08.871Z,67.27
2019-03-27T12:14:12.080Z,66.72
2019-03-27T12:15:08.864Z,67.24
2019-03-27T12:16:08.840Z,66.93
2019-03-27T12:17:08.821Z,67.13
2019-03-27T12:18:08.811Z,67.44
2019-03-27T12:19:08.805Z,67.24
2019-03-27T12:20:08.804Z,67.03
2019-03-27T12:21:08.775Z,67.24
2019-03-27T12:22:08.765Z,67.24
2019-03-27T12:23:08.758Z,67.57
2019-03-27T12:24:08.746Z,67.13
2019-03-27T12:25:08.745Z,67.24
2019-03-27T12:26:08.722Z,67.85
2019-03-27T12:27:08.717Z,67.75
2019-03-27T12:28:08.769Z,67.24
2019-03-27T12:29:08.695Z,67.37
2019-03-27T12:30:08.694Z,67.34
2019-03-27T12:31:08.725Z,67.47
2019-03-27T12:32:08.660Z,67.88
2019-03-27T12:33:08.652Z,68.08
2019-03-27T12:34:08.645Z,67.98
2019-03-27T12:35:08.636Z,67.47
2019-03-27T12:36:08.617Z,67.78
2019-03-27T12:37:08.612Z,67.68
2019-03-27T12:38:08.598Z,67.75
2019-03-27T12:39:08.584Z,67.57
2019-03-27T12:40:11.797Z,68.08
2019-03-27T12:41:08.562Z,67.68
2019-03-27T12:42:08.558Z,68.08
2019-03-27T12:43:08.541Z,69.11
2019-03-27T12:44:08.543Z,68.60
2019-03-27T12:45:08.517Z,68.39
2019-03-27T12:46:08.522Z,68.90
2019-03-27T12:47:08.501Z,69.01
2019-03-27T12:48:08.487Z,68.80
2019-03-27T12:49:08.474Z,69.01
2019-03-27T12:50:08.470Z,68.60
2019-03-27T12:51:13.136Z,69.21
2019-03-27T12:52:08.444Z,69.31